Time;durP1;ratioP1;P1;durP2;ratioP2;P2;SDS_P1;SDS_P2;PMS_P1;PMS_P2;Temp;Humidity;BMP_temperature;BMP_pressure;BME280_temperature;BME280_humidity;BME280_pressure;Samples;Min_cycle;Max_cycle;Signal;HPM_P1;HPM_P2
2023/07/14 00:00:23;;;;;;;19.20;7.55;;;;;;;27.72;49.65;95199.78;5037209;28;19925;-79
2023/07/14 00:02:52;;;;;;;14.57;7.78;;;;;;;27.62;49.14;95169.38;5017673;28;20099;-79
2023/07/14 00:05:26;;;;;;;16.23;8.40;;;;;;;27.76;49.34;95181.53;5044833;28;20032;-79
2023/07/14 00:07:54;;;;;;;16.55;7.65;;;;;;;27.80;49.88;95190.47;5023379;28;20044;-79
2023/07/14 00:10:31;;;;;;;16.20;7.43;;;;;;;27.79;50.00;95194.38;5024859;28;20036;-79
2023/07/14 00:12:58;;;;;;;14.27;7.65;;;;;;;27.77;50.21;95194.00;5043536;28;20487;-79
2023/07/14 00:15:24;;;;;;;14.48;7.93;;;;;;;27.63;49.81;95181.06;5025696;28;20106;-79
2023/07/14 00:17:56;;;;;;;17.52;7.72;;;;;;;27.67;50.20;95189.25;5049634;28;20028;-79
2023/07/14 00:20:22;;;;;;;17.27;7.53;;;;;;;27.60;50.32;95179.91;5029979;28;20345;-79
2023/07/14 00:22:51;;;;;;;20.17;6.97;;;;;;;27.38;50.42;95142.03;5031384;28;20072;-79
2023/07/14 00:25:18;;;;;;;17.98;8.18;;;;;;;27.50;50.52;95175.16;5031803;28;20033;-79
2023/07/14 00:27:43;;;;;;;24.65;8.52;;;;;;;27.44;50.71;95170.44;5012882;28;20076;-79
2023/07/14 00:30:15;;;;;;;15.07;8.43;;;;;;;27.28;50.43;95149.75;5016360;28;20500;-79
2023/07/14 00:32:40;;;;;;;19.92;7.55;;;;;;;27.45;50.34;95169.28;5020968;28;20029;-79
2023/07/14 00:35:23;;;;;;;18.98;7.75;;;;;;;27.11;50.99;95122.41;5030917;28;20100;-79
2023/07/14 00:37:50;;;;;;;15.75;7.47;;;;;;;27.45;50.83;95172.00;5031442;28;20128;-79
2023/07/14 00:40:18;;;;;;;15.93;7.15;;;;;;;27.43;51.41;95168.88;5048245;28;20041;-79
2023/07/14 00:42:47;;;;;;;20.17;7.80;;;;;;;27.37;51.70;95184.81;5032751;28;20070;-79
2023/07/14 00:45:18;;;;;;;14.75;8.13;;;;;;;27.09;52.19;95198.22;5033171;28;20032;-79
2023/07/14 00:47:52;;;;;;;21.40;7.75;;;;;;;27.18;51.53;95204.91;5034527;28;20029;-79
2023/07/14 00:50:42;;;;;;;11.48;6.95;;;;;;;27.23;51.41;95212.75;5019594;28;20045;-79
2023/07/14 00:53:33;;;;;;;19.30;9.30;;;;;;;26.87;52.54;95199.97;5026806;28;20030;-79
2023/07/14 00:56:08;;;;;;;18.45;8.50;;;;;;;27.13;52.47;95234.44;5020753;28;20467;-79
2023/07/14 00:58:34;;;;;;;21.17;9.77;;;;;;;26.51;55.12;95228.81;5039829;28;20029;-79
2023/07/14 01:01:01;;;;;;;14.32;8.48;;;;;;;26.70;53.95;95192.47;5029104;28;20033;-79
2023/07/14 01:03:27;;;;;;;19.35;8.80;;;;;;;26.88;53.47;95206.97;5016144;28;20086;-79
2023/07/14 01:05:53;;;;;;;21.58;9.00;;;;;;;26.97;53.19;95244.78;5041107;28;20030;-79
2023/07/14 01:08:20;;;;;;;30.45;9.50;;;;;;;26.62;54.76;95245.25;5029236;28;20029;-79
2023/07/14 01:10:46;;;;;;;17.23;8.63;;;;;;;26.56;54.85;95244.78;5029775;28;20112;-79
2023/07/14 01:13:12;;;;;;;16.67;9.18;;;;;;;26.64;54.36;95221.16;5020790;28;20029;-79
2023/07/14 01:15:40;;;;;;;18.60;9.27;;;;;;;26.84;54.33;95261.38;5021827;28;20034;-79
2023/07/14 01:18:07;;;;;;;21.65;10.52;;;;;;;26.56;54.64;95235.84;5029674;28;20090;-79
2023/07/14 01:20:35;;;;;;;24.67;9.93;;;;;;;26.86;54.31;95256.34;5032392;28;20037;-79
2023/07/14 01:23:07;;;;;;;20.13;10.02;;;;;;;26.69;55.60;95250.75;5016018;28;20044;-78
2023/07/14 01:25:35;;;;;;;20.95;10.23;;;;;;;26.85;54.77;95238.44;5035514;28;20531;-79
2023/07/14 01:28:12;;;;;;;17.02;9.13;;;;;;;26.96;54.53;95237.78;5015236;28;20435;-79
2023/07/14 01:30:39;;;;;;;16.95;8.93;;;;;;;26.83;54.62;95215.50;5033233;28;20862;-79
2023/07/14 01:33:11;;;;;;;20.38;8.77;;;;;;;26.51;54.34;95177.13;5040042;28;20124;-79
2023/07/14 01:35:39;;;;;;;30.55;9.20;;;;;;;26.89;54.31;95228.38;5021968;28;20415;-79
2023/07/14 01:38:06;;;;;;;23.23;9.30;;;;;;;26.69;54.01;95191.69;5052773;28;20041;-79
2023/07/14 01:40:33;;;;;;;20.92;9.35;;;;;;;26.91;54.24;95232.69;5024995;28;20388;-79
2023/07/14 01:43:02;;;;;;;19.58;8.82;;;;;;;26.72;54.20;95220.06;5044706;28;20550;-79
2023/07/14 01:45:32;;;;;;;22.20;9.05;;;;;;;26.84;54.50;95226.03;5040778;28;20104;-79
2023/07/14 01:48:02;;;;;;;24.23;9.38;;;;;;;26.85;54.55;95224.06;5017463;28;20638;-79
2023/07/14 01:50:35;;;;;;;16.70;8.70;;;;;;;26.89;54.28;95227.59;5018161;28;20037;-79
2023/07/14 01:53:10;;;;;;;18.67;10.02;;;;;;;26.65;54.23;95196.31;5036552;28;20387;-79
2023/07/14 01:55:40;;;;;;;15.85;8.90;;;;;;;26.92;54.08;95231.53;5039041;28;20508;-79
2023/07/14 01:58:12;;;;;;;16.08;9.27;;;;;;;26.79;53.79;95214.69;5023001;28;20039;-80
2023/07/14 02:00:39;;;;;;;15.55;9.50;;;;;;;26.89;54.25;95243.91;5024846;28;20029;-80
2023/07/14 02:03:08;;;;;;;19.42;9.13;;;;;;;26.83;54.33;95240.78;5025908;28;20576;-80
2023/07/14 02:05:36;;;;;;;15.85;8.68;;;;;;;26.89;54.32;95249.38;5044601;28;20033;-80
2023/07/14 02:08:05;;;;;;;19.20;9.27;;;;;;;26.94;53.97;95259.16;5047151;28;20037;-80
2023/07/14 02:10:32;;;;;;;16.95;9.45;;;;;;;26.97;53.98;95269.28;5020498;28;20064;-80
2023/07/14 02:12:59;;;;;;;19.35;8.95;;;;;;;26.80;53.89;95246.94;5029719;28;20032;-80
2023/07/14 02:15:31;;;;;;;21.90;9.77;;;;;;;27.01;53.77;95278.25;5032793;28;20041;-80
2023/07/14 02:17:58;;;;;;;18.88;9.07;;;;;;;26.72;54.00;95234.44;5052263;28;20463;-80
2023/07/14 02:20:34;;;;;;;21.75;9.73;;;;;;;26.99;54.09;95289.53;5013808;28;20127;-80
2023/07/14 02:23:04;;;;;;;18.02;9.55;;;;;;;26.75;54.24;95268.28;5029894;28;20095;-80
2023/07/14 02:25:40;;;;;;;19.55;9.07;;;;;;;26.95;54.26;95301.53;5019700;28;20070;-80
2023/07/14 02:28:08;;;;;;;15.27;10.18;;;;;;;27.01;54.18;95314.41;5010966;28;20124;-80
2023/07/14 02:30:34;;;;;;;18.83;9.85;;;;;;;26.98;54.18;95322.56;5022918;28;20039;-80
2023/07/14 02:33:22;;;;;;;17.52;9.82;;;;;;;26.80;54.20;95306.03;5042803;28;20033;-80
2023/07/14 02:35:59;;;;;;;23.92;10.65;;;;;;;26.82;54.41;95307.22;5048203;28;20108;-80
2023/07/14 02:38:25;;;;;;;19.30;10.13;;;;;;;26.55;54.72;95313.16;5049335;28;20399;-80
2023/07/14 02:41:01;;;;;;;19.00;9.13;;;;;;;26.60;54.91;95321.75;5014129;28;20040;-80
2023/07/14 02:43:26;;;;;;;25.00;9.20;;;;;;;26.62;55.00;95318.69;5017724;28;20025;-80
2023/07/14 02:45:57;;;;;;;18.60;9.38;;;;;;;26.42;55.35;95315.34;5028336;28;20032;-80
2023/07/14 02:48:44;;;;;;;17.65;8.77;;;;;;;26.67;55.21;95346.31;5039894;28;20415;-80
2023/07/14 02:51:10;;;;;;;14.43;9.18;;;;;;;26.54;55.51;95333.34;5039494;28;20048;-80
2023/07/14 02:53:36;;;;;;;20.50;9.73;;;;;;;26.38;55.76;95314.53;5017317;28;20119;-80
2023/07/14 02:56:03;;;;;;;21.60;8.98;;;;;;;26.39;55.88;95321.53;5019879;28;20136;-80
2023/07/14 02:58:29;;;;;;;19.38;10.65;;;;;;;26.08;55.89;95285.41;5013581;28;20178;-80
2023/07/14 03:00:54;;;;;;;20.55;9.90;;;;;;;26.44;55.87;95343.72;5013166;28;20029;-80
2023/07/14 03:03:20;;;;;;;18.45;10.02;;;;;;;26.42;55.87;95346.03;5023812;28;20021;-80
2023/07/14 03:05:46;;;;;;;23.27;9.73;;;;;;;26.43;55.59;95344.88;5031057;28;20022;-82
2023/07/14 03:08:15;;;;;;;16.30;9.73;;;;;;;26.32;55.79;95327.66;5032338;28;20037;-80
2023/07/14 03:10:46;;;;;;;24.60;9.57;;;;;;;26.42;56.03;95345.25;5026695;28;20029;-81
2023/07/14 03:13:12;;;;;;;;;;;;;;;26.37;56.13;95337.44;5047562;28;20107;-81
2023/07/14 03:15:38;;;;;;;26.35;10.00;;;;;;;26.31;55.74;95336.19;5050802;28;20295;-80
2023/07/14 03:18:03;;;;;;;17.30;10.35;;;;;;;26.26;55.62;95326.41;5044328;28;20091;-80
2023/07/14 03:20:29;;;;;;;21.77;9.80;;;;;;;26.29;55.32;95335.78;5017903;28;20079;-80
2023/07/14 03:22:54;;;;;;;16.45;10.23;;;;;;;26.33;55.02;95331.16;5032610;28;20456;-81
2023/07/14 03:25:20;;;;;;;26.90;10.45;;;;;;;26.33;54.77;95375.44;5023324;28;20025;-80
2023/07/14 03:27:46;;;;;;;19.80;10.63;;;;;;;25.91;55.05;95318.56;5034603;28;20042;-81
2023/07/14 03:30:14;;;;;;;16.95;9.93;;;;;;;25.77;55.70;95347.47;5036103;28;20033;-80
2023/07/14 03:32:40;;;;;;;27.90;11.48;;;;;;;25.98;55.40;95370.28;5037136;28;20150;-81
2023/07/14 03:35:07;;;;;;;18.77;10.10;;;;;;;25.98;54.82;95347.75;5020189;28;20037;-81
2023/07/14 03:37:32;;;;;;;22.13;10.65;;;;;;;26.14;54.90;95368.19;5013032;28;20037;-80
2023/07/14 03:39:58;;;;;;;26.52;10.75;;;;;;;26.11;55.25;95359.97;5023430;28;20041;-80
2023/07/14 03:42:23;;;;;;;25.80;10.35;;;;;;;26.06;54.99;95339.34;5026170;28;20128;-80
2023/07/14 03:44:49;;;;;;;17.05;9.90;;;;;;;26.19;54.87;95363.56;5028200;28;20029;-81
2023/07/14 03:47:14;;;;;;;22.40;10.88;;;;;;;26.19;54.94;95352.69;5042876;28;20060;-80
2023/07/14 03:49:40;;;;;;;26.35;10.73;;;;;;;26.36;54.53;95399.19;5029370;28;20029;-80
2023/07/14 03:52:06;;;;;;;21.77;10.95;;;;;;;26.11;53.65;95381.72;5013055;28;20037;-81
2023/07/14 03:54:32;;;;;;;18.77;10.45;;;;;;;26.35;53.14;95407.69;5012200;28;20025;-80
2023/07/14 03:57:00;;;;;;;21.30;10.77;;;;;;;26.40;53.09;95402.72;5031517;28;20026;-80
2023/07/14 03:59:27;;;;;;;23.52;10.25;;;;;;;26.33;53.01;95399.13;5033070;28;20474;-81
2023/07/14 04:01:53;;;;;;;25.42;10.18;;;;;;;26.34;52.82;95400.69;5023278;28;20033;-81
2023/07/14 04:04:20;;;;;;;22.58;9.75;;;;;;;26.32;52.62;95395.63;5037710;28;20029;-81
2023/07/14 04:06:46;;;;;;;22.73;9.95;;;;;;;26.22;52.44;95379.16;5036831;28;20407;-81
2023/07/14 04:09:11;;;;;;;22.58;10.55;;;;;;;26.24;52.60;95391.22;5020894;28;20049;-80
2023/07/14 04:11:44;;;;;;;21.17;10.15;;;;;;;26.33;52.07;95418.16;4984682;28;20403;-78
2023/07/14 04:14:10;;;;;;;21.13;10.00;;;;;;;26.44;52.35;95433.47;4983479;28;20521;-78
2023/07/14 04:16:36;;;;;;;23.80;10.80;;;;;;;26.36;52.20;95422.88;4983784;28;20037;-78
2023/07/14 04:19:03;;;;;;;28.38;10.07;;;;;;;26.32;53.00;95441.84;4984802;28;20023;-78
2023/07/14 04:21:30;;;;;;;25.38;10.55;;;;;;;25.88;53.05;95427.97;4983586;28;20049;-78
2023/07/14 04:23:56;;;;;;;26.17;10.00;;;;;;;26.04;52.84;95439.47;4994359;28;20037;-78
2023/07/14 04:26:23;;;;;;;24.75;10.18;;;;;;;26.08;52.62;95436.81;4985143;28;20023;-78
2023/07/14 04:28:48;;;;;;;15.18;9.05;;;;;;;26.33;52.30;95467.09;4983232;28;20038;-78
2023/07/14 04:31:15;;;;;;;23.27;10.23;;;;;;;26.29;50.93;95453.47;4985386;28;20037;-78
2023/07/14 04:33:45;;;;;;;31.42;10.98;;;;;;;26.38;50.76;95464.06;4984523;28;20565;-78
2023/07/14 04:36:12;;;;;;;24.38;10.55;;;;;;;26.14;49.83;95474.19;4983824;28;20023;-78
2023/07/14 04:38:41;;;;;;;24.63;10.95;;;;;;;26.20;49.96;95488.25;4983385;28;20066;-78
2023/07/14 04:41:07;;;;;;;18.85;9.15;;;;;;;25.86;49.98;95476.44;4983891;28;20056;-78
2023/07/14 04:43:34;;;;;;;23.35;9.45;;;;;;;25.80;50.20;95507.00;4983525;28;20514;-78
2023/07/14 04:45:59;;;;;;;19.40;10.10;;;;;;;25.60;50.57;95498.91;4984538;28;20063;-78
2023/07/14 04:48:25;;;;;;;17.70;10.38;;;;;;;25.52;49.96;95486.31;4985134;28;20038;-78
2023/07/14 04:50:50;;;;;;;25.25;11.38;;;;;;;25.03;51.82;95513.31;4986043;28;20031;-78
2023/07/14 04:53:17;;;;;;;23.38;10.65;;;;;;;25.04;52.39;95505.97;4982668;28;20069;-78
2023/07/14 04:55:45;;;;;;;23.35;11.32;;;;;;;24.98;52.00;95500.81;4982841;28;20075;-77
2023/07/14 04:58:12;;;;;;;26.45;10.52;;;;;;;24.86;52.50;95486.59;4983457;28;20524;-78
2023/07/14 05:00:39;;;;;;;20.85;10.30;;;;;;;24.93;52.39;95501.13;4984373;28;20041;-78
2023/07/14 05:03:06;;;;;;;28.77;10.32;;;;;;;25.08;52.16;95483.19;4982120;28;20030;-78
2023/07/14 05:05:32;;;;;;;23.30;10.60;;;;;;;25.33;52.26;95502.63;4984978;28;20083;-78
2023/07/14 05:07:58;;;;;;;23.30;10.60;;;;;;;25.05;52.79;95455.97;4994971;28;20121;-78
2023/07/14 05:10:25;;;;;;;23.70;10.90;;;;;;;25.15;52.61;95463.53;4983675;28;20138;-79
2023/07/14 05:12:52;;;;;;;23.65;9.73;;;;;;;25.04;53.45;95470.69;4981639;28;20108;-78
2023/07/14 05:15:18;;;;;;;18.85;9.63;;;;;;;25.23;53.81;95501.31;4981819;28;20027;-78
2023/07/14 05:17:44;;;;;;;17.55;9.00;;;;;;;25.21;53.89;95484.59;5062476;28;20039;-78
2023/07/14 05:20:12;;;;;;;25.25;10.52;;;;;;;25.46;53.72;95501.34;4983205;28;20030;-78
2023/07/14 05:22:38;;;;;;;28.20;9.02;;;;;;;25.53;53.45;95504.19;4971614;28;20141;-78
2023/07/14 05:25:04;;;;;;;19.45;9.45;;;;;;;25.61;53.38;95486.13;4968193;28;20139;-78
2023/07/14 05:27:30;;;;;;;30.73;10.38;;;;;;;25.21;53.81;95438.47;4966780;28;20113;-78
2023/07/14 05:29:56;;;;;;;22.60;10.65;;;;;;;25.66;53.92;95499.41;4971817;28;20058;-78
2023/07/14 05:32:22;;;;;;;21.52;10.10;;;;;;;25.61;53.28;95507.84;5020187;28;20285;-78
2023/07/14 05:34:48;;;;;;;23.83;9.32;;;;;;;25.79;53.61;95527.16;4970329;28;20035;-78
2023/07/14 05:37:15;;;;;;;19.75;9.85;;;;;;;25.40;54.18;95491.94;4968616;28;20504;-80
2023/07/14 05:39:41;;;;;;;23.17;9.95;;;;;;;25.80;53.97;95529.50;4969106;28;20038;-78
2023/07/14 05:42:07;;;;;;;26.50;10.48;;;;;;;25.96;53.19;95532.91;4970807;28;20070;-78
2023/07/14 05:44:32;;;;;;;23.15;10.63;;;;;;;26.02;53.62;95525.22;4969282;28;20085;-78
2023/07/14 05:46:58;;;;;;;24.30;10.13;;;;;;;25.98;53.20;95505.38;4982487;28;20076;-78
2023/07/14 05:49:24;;;;;;;17.60;10.18;;;;;;;26.37;52.92;95525.03;4969741;28;20478;-77
2023/07/14 05:51:53;;;;;;;17.92;9.88;;;;;;;26.55;52.43;95526.06;4968634;28;20031;-78
2023/07/14 05:54:20;;;;;;;24.70;10.63;;;;;;;26.68;52.11;95521.22;4965761;28;20555;-78
2023/07/14 05:56:46;;;;;;;23.63;9.90;;;;;;;26.64;51.40;95495.88;4975564;28;20030;-78
2023/07/14 05:59:13;;;;;;;26.90;10.95;;;;;;;26.31;51.02;95440.28;4967813;28;20039;-78
2023/07/14 06:01:38;;;;;;;20.73;9.77;;;;;;;26.67;51.15;95501.38;4964548;28;20035;-78
2023/07/14 06:04:05;;;;;;;29.10;10.38;;;;;;;26.82;51.16;95505.06;4967742;28;20061;-78
2023/07/14 06:06:31;;;;;;;32.42;9.15;;;;;;;27.07;49.94;95514.38;4967345;28;20099;-78
2023/07/14 06:08:57;;;;;;;23.55;9.80;;;;;;;27.29;49.47;95526.28;4969120;28;20041;-78
2023/07/14 06:11:23;;;;;;;26.23;9.77;;;;;;;27.37;49.29;95525.22;4967929;28;20051;-78
2023/07/14 06:13:48;;;;;;;21.58;9.82;;;;;;;27.57;49.15;95529.34;4967656;28;20038;-78
2023/07/14 06:16:14;;;;;;;23.05;10.07;;;;;;;27.49;49.52;95499.63;4970134;28;20500;-78
2023/07/14 06:18:39;;;;;;;21.30;8.65;;;;;;;27.68;49.08;95513.13;4967383;28;20084;-78
2023/07/14 06:21:05;;;;;;;17.58;8.73;;;;;;;27.42;49.00;95456.00;4967905;28;20027;-78
2023/07/14 06:23:30;;;;;;;20.92;9.55;;;;;;;27.84;48.98;95505.47;4969163;28;20057;-78
2023/07/14 06:25:58;;;;;;;25.67;9.85;;;;;;;27.50;48.73;95458.41;4970028;28;20043;-78
2023/07/14 06:28:24;;;;;;;17.60;8.93;;;;;;;27.79;49.26;95507.75;4968873;28;20050;-78
2023/07/14 06:31:00;;;;;;;27.67;10.20;;;;;;;27.99;49.13;95523.53;4969647;28;20039;-78
2023/07/14 06:33:26;;;;;;;22.13;9.68;;;;;;;27.91;49.15;95512.94;4966653;28;20042;-78
2023/07/14 06:35:55;;;;;;;21.38;8.43;;;;;;;27.88;48.89;95503.56;4968904;28;20046;-78
2023/07/14 06:38:22;;;;;;;19.67;8.90;;;;;;;27.75;50.23;95521.34;4967144;28;20378;-78
2023/07/14 06:40:54;;;;;;;21.50;9.13;;;;;;;27.56;49.44;95481.47;4968258;28;20023;-78
2023/07/14 06:43:19;;;;;;;23.45;9.00;;;;;;;27.81;49.60;95508.16;4967377;28;20026;-78
2023/07/14 06:45:47;;;;;;;15.88;8.63;;;;;;;28.01;48.92;95513.00;4967364;28;20035;-79
2023/07/14 06:48:13;;;;;;;18.60;8.43;;;;;;;27.80;48.84;95484.78;4967466;28;20031;-79
2023/07/14 06:50:38;;;;;;;20.55;8.10;;;;;;;27.47;48.56;95456.44;5035363;28;20033;-79
2023/07/14 06:53:04;;;;;;;18.15;7.65;;;;;;;27.63;49.00;95527.84;4968128;28;20042;-79
2023/07/14 06:55:29;;;;;;;19.60;8.15;;;;;;;27.69;48.94;95497.56;4967590;28;20496;-78
2023/07/14 06:57:55;;;;;;;26.50;8.45;;;;;;;27.72;49.04;95494.06;4968268;28;20050;-79
2023/07/14 07:00:21;;;;;;;19.65;8.13;;;;;;;27.94;49.04;95493.88;4967627;28;20034;-79
2023/07/14 07:02:46;;;;;;;17.52;7.43;;;;;;;28.10;48.71;95506.44;4966828;28;20039;-79
2023/07/14 07:05:12;;;;;;;16.60;7.65;;;;;;;27.66;50.00;95493.63;4967469;28;20019;-79
2023/07/14 07:07:37;;;;;;;13.90;6.85;;;;;;;27.39;49.56;95497.63;4967019;28;20142;-78
2023/07/14 07:10:03;;;;;;;18.33;8.02;;;;;;;27.65;50.17;95516.56;4978429;28;20129;-79
2023/07/14 07:12:29;;;;;;;16.42;6.68;;;;;;;27.46;49.58;95495.75;4967691;28;20486;-78
2023/07/14 07:14:55;;;;;;;15.80;7.22;;;;;;;27.47;49.20;95501.94;4961587;28;20594;-79
2023/07/14 07:17:20;;;;;;;15.07;8.02;;;;;;;27.48;49.88;95500.78;4968340;28;20034;-78
2023/07/14 07:19:46;;;;;;;15.88;7.07;;;;;;;27.70;49.62;95504.53;4966433;28;20031;-79
2023/07/14 07:22:11;;;;;;;11.40;6.72;;;;;;;27.63;49.05;95469.84;4976756;28;20035;-78
2023/07/14 07:24:37;;;;;;;20.13;7.75;;;;;;;27.76;48.71;95468.44;4968616;28;20027;-78
2023/07/14 07:27:03;;;;;;;19.63;7.47;;;;;;;28.14;49.14;95516.25;4968362;28;20030;-78
2023/07/14 07:29:32;;;;;;;23.05;7.47;;;;;;;27.95;49.59;95511.00;4964700;28;20037;-78
2023/07/14 07:31:57;;;;;;;16.80;6.97;;;;;;;27.48;49.14;95466.16;4968096;28;20101;-78
2023/07/14 07:34:23;;;;;;;15.63;7.65;;;;;;;27.92;49.52;95514.50;4981316;28;20657;-78
2023/07/14 07:36:49;;;;;;;25.25;7.97;;;;;;;27.81;49.06;95462.63;4982478;28;20026;-78
2023/07/14 07:39:14;;;;;;;20.35;8.15;;;;;;;28.02;48.71;95472.91;4967314;28;20083;-78
2023/07/14 07:41:40;;;;;;;17.60;7.57;;;;;;;28.14;48.46;95510.00;4967099;28;20031;-78
2023/07/14 07:44:09;;;;;;;15.63;7.55;;;;;;;28.11;48.31;95506.09;4968163;28;20035;-78
2023/07/14 07:46:37;;;;;;;14.20;7.55;;;;;;;27.93;48.73;95475.16;4966802;28;20084;-78
2023/07/14 07:49:03;;;;;;;18.52;7.60;;;;;;;28.09;48.82;95511.13;4968541;28;20038;-78
2023/07/14 07:51:29;;;;;;;16.75;8.02;;;;;;;28.11;48.60;95467.91;4967866;28;20027;-78
2023/07/14 07:53:55;;;;;;;18.50;8.00;;;;;;;28.44;48.22;95491.53;4968111;28;20042;-78
2023/07/14 07:56:20;;;;;;;22.30;8.43;;;;;;;28.47;48.37;95487.25;4968120;28;20457;-78
2023/07/14 07:58:46;;;;;;;15.13;8.02;;;;;;;28.25;47.96;95480.88;4968354;28;20050;-78
2023/07/14 08:01:22;;;;;;;15.10;7.30;;;;;;;27.98;48.92;95467.44;4967759;28;20030;-78
2023/07/14 08:03:49;;;;;;;14.52;7.30;;;;;;;28.10;48.48;95477.25;4968541;28;20138;-78
2023/07/14 08:06:14;;;;;;;22.35;8.80;;;;;;;28.12;48.75;95469.47;4982468;28;20034;-78
2023/07/14 08:08:39;;;;;;;16.45;8.15;;;;;;;27.75;48.71;95434.16;4967105;28;20038;-78
2023/07/14 08:11:10;;;;;;;16.40;8.25;;;;;;;28.28;48.29;95483.66;5041487;28;20091;-78
2023/07/14 08:13:35;;;;;;;16.20;7.55;;;;;;;28.18;47.33;95453.56;4966903;28;20044;-78
2023/07/14 08:16:01;;;;;;;16.50;8.10;;;;;;;28.19;46.76;95415.03;4967230;28;20496;-78
2023/07/14 08:18:27;;;;;;;18.83;8.27;;;;;;;28.45;47.50;95474.03;4968539;28;20108;-78
2023/07/14 08:20:53;;;;;;;25.00;7.63;;;;;;;28.60;46.86;95469.44;4968063;28;20056;-78
2023/07/14 08:23:21;;;;;;;17.60;7.68;;;;;;;28.53;46.92;95448.34;4966558;28;20058;-78
2023/07/14 08:26:03;;;;;;;16.80;6.65;;;;;;;28.76;47.16;95462.50;4966426;28;20132;-78
2023/07/14 08:28:29;;;;;;;14.60;8.43;;;;;;;28.68;47.23;95441.78;4968544;28;20038;-78
2023/07/14 08:31:02;;;;;;;13.25;7.47;;;;;;;28.96;46.24;95464.94;4966904;28;20488;-78
2023/07/14 08:33:29;;;;;;;12.63;7.65;;;;;;;29.02;46.27;95466.91;4967248;28;20503;-77
2023/07/14 08:36:00;;;;;;;23.88;8.75;;;;;;;29.05;46.47;95457.94;4966662;28;20046;-78
2023/07/14 08:38:25;;;;;;;;;;;;;;;29.22;45.24;95455.66;4981739;28;20037;-78
2023/07/14 08:40:56;;;;;;;16.17;7.47;;;;;;;29.08;45.40;95445.47;4983985;28;19924;-78
2023/07/14 08:43:46;;;;;;;;;;;;;;;29.29;44.87;95456.47;4967418;28;20473;-78
2023/07/14 08:46:34;;;;;;;19.10;8.25;;;;;;;29.37;44.68;95454.56;4966661;28;19918;-78
2023/07/14 08:49:12;;;;;;;14.00;8.63;;;;;;;29.34;44.50;95455.28;4966404;28;20069;-78
2023/07/14 08:51:41;;;;;;;21.05;8.88;;;;;;;29.17;44.68;95419.34;4963876;28;20130;-78
2023/07/14 08:54:15;;;;;;;17.67;8.63;;;;;;;29.35;44.17;95452.22;4966118;28;20030;-78
2023/07/14 08:56:41;;;;;;;24.52;8.40;;;;;;;29.11;43.76;95428.31;4965786;28;20089;-79
2023/07/14 08:59:17;;;;;;;18.20;7.75;;;;;;;29.33;43.35;95451.78;4969318;28;20038;-78
2023/07/14 09:01:52;;;;;;;16.70;7.90;;;;;;;29.17;43.59;95405.69;4970041;28;20023;-78
2023/07/14 09:04:30;;;;;;;19.30;8.40;;;;;;;28.97;43.86;95409.94;4969962;28;20084;-78
2023/07/14 09:06:56;;;;;;;15.18;7.72;;;;;;;29.15;44.20;95429.09;4970694;28;20038;-78
2023/07/14 09:09:38;;;;;;;17.65;8.82;;;;;;;29.23;42.87;95454.47;4971311;28;20034;-78
2023/07/14 09:12:22;;;;;;;19.17;8.45;;;;;;;29.21;43.12;95443.16;4969440;28;20050;-78
2023/07/14 09:14:55;;;;;;;16.25;7.60;;;;;;;29.22;43.29;95428.34;4987845;28;20148;-79
2023/07/14 09:17:24;;;;;;;15.95;8.95;;;;;;;29.29;42.77;95439.28;4969717;28;20402;-78
2023/07/14 09:20:08;;;;;;;17.30;7.82;;;;;;;29.39;42.73;95439.31;4973461;28;20570;-78
2023/07/14 09:22:45;;;;;;;16.92;8.32;;;;;;;29.69;42.38;95429.97;5034815;28;20050;-78
2023/07/14 09:25:23;;;;;;;16.58;8.02;;;;;;;29.83;42.55;95422.56;4969587;28;20055;-78
2023/07/14 09:27:50;;;;;;;19.05;8.35;;;;;;;29.86;42.14;95410.84;4968348;28;20041;-78
2023/07/14 09:30:23;;;;;;;14.00;8.50;;;;;;;29.98;41.88;95425.34;4970225;28;20034;-78
2023/07/14 09:32:54;;;;;;;19.45;8.60;;;;;;;29.99;41.95;95415.94;4970920;28;20050;-78
2023/07/14 09:35:24;;;;;;;19.75;8.98;;;;;;;29.71;42.39;95353.84;4968713;28;20515;-78
2023/07/14 09:38:15;;;;;;;16.10;8.02;;;;;;;30.20;42.20;95418.66;4969421;28;20047;-78
2023/07/14 09:40:45;;;;;;;13.75;8.43;;;;;;;29.97;41.22;95393.69;4984175;28;20031;-78
2023/07/14 09:43:10;;;;;;;23.85;8.70;;;;;;;30.05;40.90;95389.78;5029293;28;20509;-78
2023/07/14 09:45:39;;;;;;;18.42;8.70;;;;;;;30.14;41.40;95390.13;4969932;28;20100;-78
2023/07/14 09:48:20;;;;;;;16.90;8.57;;;;;;;29.84;41.48;95361.25;4970121;28;20049;-78
2023/07/14 09:51:04;;;;;;;;;;;;;;;30.61;40.72;95410.75;4969436;28;20122;-78
2023/07/14 09:53:32;;;;;;;14.43;9.50;;;;;;;30.89;40.20;95366.06;4968767;28;20026;-78
2023/07/14 09:56:01;;;;;;;24.55;8.98;;;;;;;32.06;38.40;95382.44;4968280;28;20039;-79
2023/07/14 09:58:32;;;;;;;23.05;8.63;;;;;;;32.99;36.11;95401.44;4968897;28;20509;-79
2023/07/14 10:01:06;;;;;;;17.85;8.05;;;;;;;33.83;34.81;95386.91;4968919;28;20027;-79
2023/07/14 10:03:42;;;;;;;12.45;7.78;;;;;;;34.87;33.34;95383.81;4968709;28;20030;-79
2023/07/14 10:06:26;;;;;;;20.15;7.85;;;;;;;35.69;32.42;95383.56;4999609;28;20467;-79
2023/07/14 10:09:11;;;;;;;22.85;8.48;;;;;;;36.55;31.29;95379.41;4983117;28;20032;-79
2023/07/14 10:11:44;;;;;;;21.67;8.30;;;;;;;37.21;29.28;95387.03;4983474;28;20051;-80
2023/07/14 10:14:35;;;;;;;18.02;7.88;;;;;;;37.44;28.12;95375.66;4972280;28;20065;-80
2023/07/14 10:17:00;;;;;;;13.32;8.40;;;;;;;37.87;28.17;95377.06;4963936;28;20121;-80
2023/07/14 10:19:40;;;;;;;18.20;7.65;;;;;;;38.44;27.76;95372.38;4968675;28;20611;-80
2023/07/14 10:22:18;;;;;;;18.40;7.65;;;;;;;38.89;27.05;95378.25;4972146;28;20078;-80
2023/07/14 10:24:55;;;;;;;16.17;7.70;;;;;;;39.03;26.94;95340.16;4979710;28;20145;-80
2023/07/14 10:27:28;;;;;;;19.80;7.90;;;;;;;39.19;26.90;95360.13;5039717;28;20036;-80
2023/07/14 10:30:05;;;;;;;16.83;7.40;;;;;;;39.22;25.94;95366.72;4972259;28;20046;-80
2023/07/14 10:32:42;;;;;;;20.38;8.23;;;;;;;39.05;26.94;95366.22;4967376;28;20529;-80
2023/07/14 10:35:21;;;;;;;19.30;8.25;;;;;;;38.97;26.66;95365.72;4978052;28;20365;-80
2023/07/14 10:38:09;;;;;;;16.38;8.45;;;;;;;39.13;26.51;95342.53;5028480;28;20043;-80
2023/07/14 10:40:39;;;;;;;19.67;8.10;;;;;;;38.94;26.54;95330.56;4968579;28;20181;-80
2023/07/14 10:43:26;;;;;;;20.48;8.38;;;;;;;39.19;25.88;95317.75;5023607;28;20090;-80
2023/07/14 10:45:57;;;;;;;24.27;9.30;;;;;;;39.65;25.80;95352.75;5056548;28;20067;-80
2023/07/14 10:48:30;;;;;;;16.27;8.00;;;;;;;39.78;25.35;95321.31;4968375;28;20126;-80
2023/07/14 10:51:04;;;;;;;21.70;7.30;;;;;;;40.02;26.48;95350.84;4966517;28;20087;-80
2023/07/14 10:54:11;;;;;;;20.60;8.20;;;;;;;40.08;24.90;95348.22;4967123;28;20126;-80
2023/07/14 10:56:45;;;;;;;25.23;8.40;;;;;;;39.52;25.71;95349.31;4928976;28;20081;-80
2023/07/14 10:59:37;;;;;;;21.15;7.90;;;;;;;39.53;25.65;95338.97;4967269;28;20035;-80
2023/07/14 11:02:21;;;;;;;13.50;7.93;;;;;;;39.81;25.62;95323.97;4968657;28;20541;-80
2023/07/14 11:04:54;;;;;;;19.50;8.07;;;;;;;39.97;25.80;95329.25;4966673;28;20035;-80
2023/07/14 11:07:32;;;;;;;17.52;8.20;;;;;;;39.98;25.23;95328.00;4973748;28;20114;-80
2023/07/14 11:10:03;;;;;;;13.27;7.40;;;;;;;40.02;25.16;95336.97;4968001;28;20047;-80
2023/07/14 11:12:38;;;;;;;22.27;7.47;;;;;;;39.29;25.11;95325.63;4967349;28;20100;-80
2023/07/14 11:15:14;;;;;;;11.27;7.68;;;;;;;39.13;25.64;95341.75;4996542;28;20424;-80
2023/07/14 11:18:22;;;;;;;18.60;8.07;;;;;;;38.88;24.74;95326.03;4965268;28;20117;-80
2023/07/14 11:21:15;;;;;;;20.25;8.18;;;;;;;38.15;25.43;95328.25;4959405;28;20054;-81
2023/07/14 11:24:08;;;;;;;17.58;8.02;;;;;;;38.85;24.95;95324.16;4966645;28;20099;-81
2023/07/14 11:26:56;;;;;;;11.93;6.85;;;;;;;39.33;25.77;95328.25;4963706;28;20047;-81
2023/07/14 11:29:26;;;;;;;16.23;8.15;;;;;;;39.06;25.12;95320.63;4968908;28;20046;-81
2023/07/14 11:31:54;;;;;;;15.97;7.30;;;;;;;38.93;24.57;95315.16;4986487;28;20469;-81
2023/07/14 11:34:23;;;;;;;15.25;8.13;;;;;;;39.05;24.64;95332.16;4978628;28;20290;-81
2023/07/14 11:36:51;;;;;;;18.10;7.75;;;;;;;37.98;25.06;95335.97;4966376;28;20497;-81